Terminal Aerodrome Forecast
Issued by NWS

Home | Current Version | Previous Version | Graphics & Text | Print | Product List | Glossary On
Versions: 1 2 3 4 5 6 7 8 9 10 11 12 13 14 15 16 17 18 19
407
FTUS42 KMHX 191733
TAFPGV
TAF
KPGV 191733Z 1918/2018 VRB03KT P6SM OVC006
     FM192000 VRB03KT P6SM BKN025
     FM200200 00000KT 2SM BR BKN007
     FM200500 VRB03KT 2SM BR BKN003
     FM201100 VRB03KT 3/4SM BR BKN001
     FM201300 VRB03KT P6SM BKN003
     FM201700 21010KT P6SM BKN035
      AMD LTD TO CLD VIS AND WIND=

USA.gov is the U.S. government's official web portal to all federal, state and local government web resources and services.